Terminal Aerodrome Forecast
Issued by NWS

Home | Current Version | Previous Version | Text Only | Print | Product List | Glossary On
Versions: 1 2 3 4 5 6 7 8 9 10 11 12 13 14 15 16 17 18 19
000
FTUS43 KTOP 291700
TAFMHK
TAF
KMHK 291720Z 2918/3018 22006KT P6SM SCT035 BKN100
      TEMPO 2918/2920 SCT009 BKN020
     FM300100 35009KT P6SM VCTS BKN035CB
     FM300300 35012G21KT P6SM OVC035
     FM300800 35009G20KT P6SM BKN015=

USA.gov is the U.S. government's official web portal to all federal, state and local government web resources and services.